sensor_id;sensor_type;location;lat;lon;timestamp;P1;durP1;ratioP1;P2;durP2;ratioP2
26540;SDS011;14206;50.202;10.948;2023-06-24T00:02:03;1.95;;;1.55;;
26540;SDS011;14206;50.202;10.948;2023-06-24T00:04:33;2.97;;;1.90;;
26540;SDS011;14206;50.202;10.948;2023-06-24T00:07:04;2.00;;;1.80;;
26540;SDS011;14206;50.202;10.948;2023-06-24T00:09:36;1.80;;;1.70;;
26540;SDS011;14206;50.202;10.948;2023-06-24T00:12:04;1.70;;;1.60;;
26540;SDS011;14206;50.202;10.948;2023-06-24T00:14:31;1.65;;;1.55;;
26540;SDS011;14206;50.202;10.948;2023-06-24T00:16:59;2.22;;;1.77;;
26540;SDS011;14206;50.202;10.948;2023-06-24T00:19:26;1.90;;;1.80;;
26540;SDS011;14206;50.202;10.948;2023-06-24T00:21:54;2.10;;;1.90;;
26540;SDS011;14206;50.202;10.948;2023-06-24T00:24:21;1.90;;;1.70;;
26540;SDS011;14206;50.202;10.948;2023-06-24T00:26:52;3.22;;;1.98;;
26540;SDS011;14206;50.202;10.948;2023-06-24T00:29:19;1.73;;;1.63;;
26540;SDS011;14206;50.202;10.948;2023-06-24T00:31:46;1.70;;;1.60;;
26540;SDS011;14206;50.202;10.948;2023-06-24T00:34:14;1.80;;;1.70;;
26540;SDS011;14206;50.202;10.948;2023-06-24T00:36:41;2.38;;;1.80;;
26540;SDS011;14206;50.202;10.948;2023-06-24T00:39:09;1.77;;;1.67;;
26540;SDS011;14206;50.202;10.948;2023-06-24T00:41:36;1.83;;;1.50;;
26540;SDS011;14206;50.202;10.948;2023-06-24T00:44:03;2.95;;;1.80;;
26540;SDS011;14206;50.202;10.948;2023-06-24T00:46:30;1.73;;;1.63;;
26540;SDS011;14206;50.202;10.948;2023-06-24T00:49:00;2.15;;;1.75;;
26540;SDS011;14206;50.202;10.948;2023-06-24T00:51:28;2.20;;;2.00;;
26540;SDS011;14206;50.202;10.948;2023-06-24T00:54:00;2.15;;;1.67;;
26540;SDS011;14206;50.202;10.948;2023-06-24T00:56:28;1.70;;;1.60;;
26540;SDS011;14206;50.202;10.948;2023-06-24T00:59:04;1.80;;;1.70;;
26540;SDS011;14206;50.202;10.948;2023-06-24T01:01:34;3.05;;;1.65;;
26540;SDS011;14206;50.202;10.948;2023-06-24T01:04:02;1.80;;;1.70;;
26540;SDS011;14206;50.202;10.948;2023-06-24T01:06:36;1.70;;;1.60;;
26540;SDS011;14206;50.202;10.948;2023-06-24T01:09:10;2.28;;;1.80;;
26540;SDS011;14206;50.202;10.948;2023-06-24T01:11:38;1.85;;;1.75;;
26540;SDS011;14206;50.202;10.948;2023-06-24T01:14:05;1.98;;;1.65;;
26540;SDS011;14206;50.202;10.948;2023-06-24T01:31:41;2.20;;;1.92;;
26540;SDS011;14206;50.202;10.948;2023-06-24T01:34:24;2.40;;;1.58;;
26540;SDS011;14206;50.202;10.948;2023-06-24T01:39:33;1.55;;;1.45;;
26540;SDS011;14206;50.202;10.948;2023-06-24T01:42:06;1.73;;;1.40;;
26540;SDS011;14206;50.202;10.948;2023-06-24T01:44:38;1.83;;;1.73;;
26540;SDS011;14206;50.202;10.948;2023-06-24T01:47:09;1.70;;;1.60;;
26540;SDS011;14206;50.202;10.948;2023-06-24T01:49:39;2.92;;;1.80;;
26540;SDS011;14206;50.202;10.948;2023-06-24T01:52:08;1.67;;;1.58;;
26540;SDS011;14206;50.202;10.948;2023-06-24T01:54:38;1.70;;;1.60;;
26540;SDS011;14206;50.202;10.948;2023-06-24T01:57:08;2.00;;;1.58;;
26540;SDS011;14206;50.202;10.948;2023-06-24T01:59:39;1.70;;;1.60;;
26540;SDS011;14206;50.202;10.948;2023-06-24T02:02:08;2.25;;;1.67;;
26540;SDS011;14206;50.202;10.948;2023-06-24T02:04:36;3.03;;;1.67;;
26540;SDS011;14206;50.202;10.948;2023-06-24T02:07:04;2.00;;;1.83;;
26540;SDS011;14206;50.202;10.948;2023-06-24T02:09:36;2.33;;;1.73;;
26540;SDS011;14206;50.202;10.948;2023-06-24T02:12:06;1.90;;;1.63;;
26540;SDS011;14206;50.202;10.948;2023-06-24T02:14:35;1.80;;;1.70;;
26540;SDS011;14206;50.202;10.948;2023-06-24T02:17:03;1.98;;;1.80;;
26540;SDS011;14206;50.202;10.948;2023-06-24T02:19:33;2.78;;;2.10;;
26540;SDS011;14206;50.202;10.948;2023-06-24T02:22:01;2.55;;;1.77;;
26540;SDS011;14206;50.202;10.948;2023-06-24T02:24:31;2.28;;;2.00;;
26540;SDS011;14206;50.202;10.948;2023-06-24T02:26:58;2.28;;;2.08;;
26540;SDS011;14206;50.202;10.948;2023-06-24T02:29:26;4.30;;;2.17;;
26540;SDS011;14206;50.202;10.948;2023-06-24T02:31:55;2.30;;;2.10;;
26540;SDS011;14206;50.202;10.948;2023-06-24T02:34:23;2.25;;;2.05;;
26540;SDS011;14206;50.202;10.948;2023-06-24T02:36:50;2.20;;;1.98;;
26540;SDS011;14206;50.202;10.948;2023-06-24T02:39:19;2.53;;;1.92;;
26540;SDS011;14206;50.202;10.948;2023-06-24T02:41:46;2.20;;;2.00;;
26540;SDS011;14206;50.202;10.948;2023-06-24T02:44:13;2.50;;;1.88;;
26540;SDS011;14206;50.202;10.948;2023-06-24T02:46:41;1.80;;;1.70;;
26540;SDS011;14206;50.202;10.948;2023-06-24T02:49:10;2.00;;;1.90;;
26540;SDS011;14206;50.202;10.948;2023-06-24T02:51:39;1.90;;;1.80;;
26540;SDS011;14206;50.202;10.948;2023-06-24T02:54:07;1.70;;;1.60;;
26540;SDS011;14206;50.202;10.948;2023-06-24T02:56:55;1.73;;;1.63;;
26540;SDS011;14206;50.202;10.948;2023-06-24T02:59:39;1.50;;;1.40;;
26540;SDS011;14206;50.202;10.948;2023-06-24T03:02:09;1.65;;;1.55;;
26540;SDS011;14206;50.202;10.948;2023-06-24T03:04:37;1.23;;;1.13;;
26540;SDS011;14206;50.202;10.948;2023-06-24T03:07:06;1.23;;;1.13;;
26540;SDS011;14206;50.202;10.948;2023-06-24T03:09:39;1.48;;;1.38;;
26540;SDS011;14206;50.202;10.948;2023-06-24T03:12:06;1.42;;;1.33;;
26540;SDS011;14206;50.202;10.948;2023-06-24T03:14:39;1.50;;;1.40;;
26540;SDS011;14206;50.202;10.948;2023-06-24T03:17:06;1.17;;;1.08;;
26540;SDS011;14206;50.202;10.948;2023-06-24T03:19:34;1.20;;;1.13;;
26540;SDS011;14206;50.202;10.948;2023-06-24T03:22:02;1.42;;;1.33;;
26540;SDS011;14206;50.202;10.948;2023-06-24T03:24:31;1.30;;;1.20;;
26540;SDS011;14206;50.202;10.948;2023-06-24T03:26:59;1.05;;;1.05;;
26540;SDS011;14206;50.202;10.948;2023-06-24T03:29:34;1.40;;;1.30;;
26540;SDS011;14206;50.202;10.948;2023-06-24T03:32:13;1.33;;;1.23;;
26540;SDS011;14206;50.202;10.948;2023-06-24T03:34:41;1.10;;;1.10;;
26540;SDS011;14206;50.202;10.948;2023-06-24T03:37:09;0.90;;;0.90;;
26540;SDS011;14206;50.202;10.948;2023-06-24T03:39:39;1.38;;;1.27;;
26540;SDS011;14206;50.202;10.948;2023-06-24T03:42:06;1.30;;;1.20;;
26540;SDS011;14206;50.202;10.948;2023-06-24T03:44:36;1.02;;;1.02;;
26540;SDS011;14206;50.202;10.948;2023-06-24T03:47:03;1.05;;;1.00;;
26540;SDS011;14206;50.202;10.948;2023-06-24T03:49:31;0.93;;;0.93;;
26540;SDS011;14206;50.202;10.948;2023-06-24T03:51:59;1.00;;;1.00;;
26540;SDS011;14206;50.202;10.948;2023-06-24T03:54:26;0.90;;;0.90;;
26540;SDS011;14206;50.202;10.948;2023-06-24T03:56:53;0.80;;;0.80;;
26540;SDS011;14206;50.202;10.948;2023-06-24T03:59:20;0.80;;;0.80;;
26540;SDS011;14206;50.202;10.948;2023-06-24T04:01:47;0.90;;;0.90;;
26540;SDS011;14206;50.202;10.948;2023-06-24T04:04:19;1.38;;;1.27;;
26540;SDS011;14206;50.202;10.948;2023-06-24T04:06:46;1.33;;;1.23;;
26540;SDS011;14206;50.202;10.948;2023-06-24T04:09:13;1.30;;;1.20;;
26540;SDS011;14206;50.202;10.948;2023-06-24T04:11:41;1.60;;;1.50;;
26540;SDS011;14206;50.202;10.948;2023-06-24T04:14:07;1.40;;;1.30;;
26540;SDS011;14206;50.202;10.948;2023-06-24T04:16:35;1.20;;;1.10;;
26540;SDS011;14206;50.202;10.948;2023-06-24T04:19:02;1.55;;;1.45;;
26540;SDS011;14206;50.202;10.948;2023-06-24T04:21:29;1.40;;;1.30;;
26540;SDS011;14206;50.202;10.948;2023-06-24T04:23:56;1.25;;;1.20;;
26540;SDS011;14206;50.202;10.948;2023-06-24T04:26:23;1.60;;;1.50;;
26540;SDS011;14206;50.202;10.948;2023-06-24T04:28:50;1.95;;;1.38;;
26540;SDS011;14206;50.202;10.948;2023-06-24T04:31:17;2.55;;;1.60;;
26540;SDS011;14206;50.202;10.948;2023-06-24T04:33:44;1.38;;;1.27;;
26540;SDS011;14206;50.202;10.948;2023-06-24T04:36:12;1.70;;;1.60;;
26540;SDS011;14206;50.202;10.948;2023-06-24T04:38:39;1.10;;;1.10;;
26540;SDS011;14206;50.202;10.948;2023-06-24T04:41:06;2.35;;;1.27;;
26540;SDS011;14206;50.202;10.948;2023-06-24T04:43:32;1.00;;;1.00;;
26540;SDS011;14206;50.202;10.948;2023-06-24T04:46:02;1.08;;;1.08;;
26540;SDS011;14206;50.202;10.948;2023-06-24T04:48:29;1.20;;;1.17;;
26540;SDS011;14206;50.202;10.948;2023-06-24T04:50:56;1.27;;;1.17;;
26540;SDS011;14206;50.202;10.948;2023-06-24T04:53:24;1.20;;;1.10;;
26540;SDS011;14206;50.202;10.948;2023-06-24T04:55:51;0.98;;;0.98;;
26540;SDS011;14206;50.202;10.948;2023-06-24T04:58:18;1.05;;;1.05;;
26540;SDS011;14206;50.202;10.948;2023-06-24T05:00:45;1.10;;;1.10;;
26540;SDS011;14206;50.202;10.948;2023-06-24T05:03:11;1.30;;;1.20;;
26540;SDS011;14206;50.202;10.948;2023-06-24T05:05:38;0.93;;;0.93;;
26540;SDS011;14206;50.202;10.948;2023-06-24T05:08:06;1.40;;;1.23;;
26540;SDS011;14206;50.202;10.948;2023-06-24T05:10:32;1.00;;;1.00;;
26540;SDS011;14206;50.202;10.948;2023-06-24T05:12:59;1.40;;;1.30;;
26540;SDS011;14206;50.202;10.948;2023-06-24T05:15:26;1.30;;;1.20;;
26540;SDS011;14206;50.202;10.948;2023-06-24T05:17:53;1.20;;;1.20;;
26540;SDS011;14206;50.202;10.948;2023-06-24T05:20:20;1.00;;;1.00;;
26540;SDS011;14206;50.202;10.948;2023-06-24T05:22:47;1.55;;;1.45;;
26540;SDS011;14206;50.202;10.948;2023-06-24T05:25:14;1.92;;;1.60;;
26540;SDS011;14206;50.202;10.948;2023-06-24T05:27:41;1.35;;;1.27;;
26540;SDS011;14206;50.202;10.948;2023-06-24T05:30:10;2.30;;;2.10;;
26540;SDS011;14206;50.202;10.948;2023-06-24T05:32:39;3.15;;;2.40;;
26540;SDS011;14206;50.202;10.948;2023-06-24T05:35:06;2.35;;;2.15;;
26540;SDS011;14206;50.202;10.948;2023-06-24T05:37:33;1.95;;;1.73;;
26540;SDS011;14206;50.202;10.948;2023-06-24T05:40:01;2.00;;;1.80;;
26540;SDS011;14206;50.202;10.948;2023-06-24T05:42:28;1.40;;;1.30;;
26540;SDS011;14206;50.202;10.948;2023-06-24T05:44:55;1.40;;;1.30;;
26540;SDS011;14206;50.202;10.948;2023-06-24T05:47:22;1.83;;;1.50;;
26540;SDS011;14206;50.202;10.948;2023-06-24T05:49:49;1.33;;;1.23;;
26540;SDS011;14206;50.202;10.948;2023-06-24T05:52:16;1.15;;;1.10;;
26540;SDS011;14206;50.202;10.948;2023-06-24T05:54:43;1.40;;;1.30;;
26540;SDS011;14206;50.202;10.948;2023-06-24T05:57:10;1.10;;;1.10;;
26540;SDS011;14206;50.202;10.948;2023-06-24T05:59:37;1.83;;;1.35;;
26540;SDS011;14206;50.202;10.948;2023-06-24T06:02:04;1.50;;;1.40;;
26540;SDS011;14206;50.202;10.948;2023-06-24T06:04:31;1.50;;;1.40;;
26540;SDS011;14206;50.202;10.948;2023-06-24T06:06:58;2.95;;;1.70;;
26540;SDS011;14206;50.202;10.948;2023-06-24T06:09:25;1.55;;;1.45;;
26540;SDS011;14206;50.202;10.948;2023-06-24T06:11:55;1.88;;;1.73;;
26540;SDS011;14206;50.202;10.948;2023-06-24T06:14:22;1.67;;;1.58;;
26540;SDS011;14206;50.202;10.948;2023-06-24T06:16:49;1.85;;;1.67;;
26540;SDS011;14206;50.202;10.948;2023-06-24T06:19:19;2.33;;;1.80;;
26540;SDS011;14206;50.202;10.948;2023-06-24T06:21:46;2.50;;;2.17;;
26540;SDS011;14206;50.202;10.948;2023-06-24T06:24:15;2.88;;;2.60;;
26540;SDS011;14206;50.202;10.948;2023-06-24T06:26:42;2.00;;;1.85;;
26540;SDS011;14206;50.202;10.948;2023-06-24T06:29:10;2.50;;;2.15;;
26540;SDS011;14206;50.202;10.948;2023-06-24T06:31:38;2.72;;;2.53;;
26540;SDS011;14206;50.202;10.948;2023-06-24T06:34:06;2.47;;;2.13;;
26540;SDS011;14206;50.202;10.948;2023-06-24T06:36:36;2.55;;;2.35;;
26540;SDS011;14206;50.202;10.948;2023-06-24T06:39:03;2.25;;;2.05;;
26540;SDS011;14206;50.202;10.948;2023-06-24T06:41:30;4.70;;;4.20;;
26540;SDS011;14206;50.202;10.948;2023-06-24T06:43:58;4.25;;;3.28;;
26540;SDS011;14206;50.202;10.948;2023-06-24T06:46:25;3.15;;;2.85;;
26540;SDS011;14206;50.202;10.948;2023-06-24T06:48:52;4.40;;;4.00;;
26540;SDS011;14206;50.202;10.948;2023-06-24T06:51:18;3.78;;;3.42;;
26540;SDS011;14206;50.202;10.948;2023-06-24T06:53:47;4.82;;;4.32;;
26540;SDS011;14206;50.202;10.948;2023-06-24T06:56:17;7.28;;;5.70;;
26540;SDS011;14206;50.202;10.948;2023-06-24T06:58:45;5.47;;;4.88;;
26540;SDS011;14206;50.202;10.948;2023-06-24T07:01:12;5.53;;;4.45;;
26540;SDS011;14206;50.202;10.948;2023-06-24T07:03:39;6.35;;;5.35;;
26540;SDS011;14206;50.202;10.948;2023-06-24T07:06:07;7.05;;;6.00;;
26540;SDS011;14206;50.202;10.948;2023-06-24T07:08:34;5.28;;;4.50;;
26540;SDS011;14206;50.202;10.948;2023-06-24T07:11:02;3.00;;;2.70;;
26540;SDS011;14206;50.202;10.948;2023-06-24T07:13:29;3.50;;;3.20;;
26540;SDS011;14206;50.202;10.948;2023-06-24T07:15:56;6.00;;;4.03;;
26540;SDS011;14206;50.202;10.948;2023-06-24T07:18:23;6.05;;;5.28;;
26540;SDS011;14206;50.202;10.948;2023-06-24T07:20:53;5.93;;;3.90;;
26540;SDS011;14206;50.202;10.948;2023-06-24T07:23:20;4.00;;;3.60;;
26540;SDS011;14206;50.202;10.948;2023-06-24T07:25:47;3.90;;;3.50;;
26540;SDS011;14206;50.202;10.948;2023-06-24T07:28:14;3.00;;;2.70;;
26540;SDS011;14206;50.202;10.948;2023-06-24T07:30:41;3.10;;;2.80;;
26540;SDS011;14206;50.202;10.948;2023-06-24T07:33:08;2.97;;;2.67;;
26540;SDS011;14206;50.202;10.948;2023-06-24T07:35:35;4.50;;;3.60;;
26540;SDS011;14206;50.202;10.948;2023-06-24T07:38:02;4.70;;;3.90;;
26540;SDS011;14206;50.202;10.948;2023-06-24T07:40:29;3.05;;;2.75;;
26540;SDS011;14206;50.202;10.948;2023-06-24T07:42:56;3.35;;;3.05;;
26540;SDS011;14206;50.202;10.948;2023-06-24T07:45:22;3.90;;;3.30;;
26540;SDS011;14206;50.202;10.948;2023-06-24T07:47:50;3.63;;;3.30;;
26540;SDS011;14206;50.202;10.948;2023-06-24T07:50:17;2.97;;;2.60;;
26540;SDS011;14206;50.202;10.948;2023-06-24T07:52:44;4.78;;;3.22;;
26540;SDS011;14206;50.202;10.948;2023-06-24T07:55:11;2.95;;;2.70;;
26540;SDS011;14206;50.202;10.948;2023-06-24T07:57:37;3.10;;;2.80;;
26540;SDS011;14206;50.202;10.948;2023-06-24T08:00:07;2.80;;;2.60;;
26540;SDS011;14206;50.202;10.948;2023-06-24T08:02:40;3.85;;;3.08;;
26540;SDS011;14206;50.202;10.948;2023-06-24T08:05:08;5.93;;;3.58;;
26540;SDS011;14206;50.202;10.948;2023-06-24T08:07:36;2.70;;;2.50;;
26540;SDS011;14206;50.202;10.948;2023-06-24T08:10:06;2.78;;;2.50;;
26540;SDS011;14206;50.202;10.948;2023-06-24T08:12:33;2.17;;;1.98;;
26540;SDS011;14206;50.202;10.948;2023-06-24T08:15:00;1.90;;;1.80;;
26540;SDS011;14206;50.202;10.948;2023-06-24T08:17:27;1.92;;;1.70;;
26540;SDS011;14206;50.202;10.948;2023-06-24T08:19:54;2.13;;;1.92;;
26540;SDS011;14206;50.202;10.948;2023-06-24T08:22:21;2.45;;;2.25;;
26540;SDS011;14206;50.202;10.948;2023-06-24T08:24:48;2.85;;;2.55;;
26540;SDS011;14206;50.202;10.948;2023-06-24T08:27:15;2.20;;;2.00;;
26540;SDS011;14206;50.202;10.948;2023-06-24T08:29:42;1.83;;;1.73;;
26540;SDS011;14206;50.202;10.948;2023-06-24T08:32:09;2.65;;;2.45;;
26540;SDS011;14206;50.202;10.948;2023-06-24T08:34:36;2.70;;;2.50;;
26540;SDS011;14206;50.202;10.948;2023-06-24T08:37:03;1.65;;;1.50;;
26540;SDS011;14206;50.202;10.948;2023-06-24T08:39:30;1.52;;;1.35;;
26540;SDS011;14206;50.202;10.948;2023-06-24T08:41:57;1.38;;;1.27;;
26540;SDS011;14206;50.202;10.948;2023-06-24T08:44:25;2.30;;;2.10;;
26540;SDS011;14206;50.202;10.948;2023-06-24T08:46:52;2.58;;;1.80;;
26540;SDS011;14206;50.202;10.948;2023-06-24T08:51:46;2.42;;;1.50;;
26540;SDS011;14206;50.202;10.948;2023-06-24T08:54:17;1.88;;;1.40;;
26540;SDS011;14206;50.202;10.948;2023-06-24T08:56:46;1.30;;;1.20;;
26540;SDS011;14206;50.202;10.948;2023-06-24T08:59:13;2.40;;;1.95;;
26540;SDS011;14206;50.202;10.948;2023-06-24T09:01:46;1.70;;;1.60;;
26540;SDS011;14206;50.202;10.948;2023-06-24T09:04:13;2.70;;;1.33;;
26540;SDS011;14206;50.202;10.948;2023-06-24T09:06:40;1.33;;;1.23;;
26540;SDS011;14206;50.202;10.948;2023-06-24T09:09:20;2.20;;;1.83;;
26540;SDS011;14206;50.202;10.948;2023-06-24T09:11:55;1.50;;;1.40;;
26540;SDS011;14206;50.202;10.948;2023-06-24T09:14:24;2.38;;;1.27;;
26540;SDS011;14206;50.202;10.948;2023-06-24T09:16:52;1.40;;;1.30;;
26540;SDS011;14206;50.202;10.948;2023-06-24T09:19:25;1.17;;;1.08;;
26540;SDS011;14206;50.202;10.948;2023-06-24T09:21:57;1.65;;;1.10;;
26540;SDS011;14206;50.202;10.948;2023-06-24T09:24:35;1.15;;;1.08;;
26540;SDS011;14206;50.202;10.948;2023-06-24T09:27:03;2.22;;;1.40;;
26540;SDS011;14206;50.202;10.948;2023-06-24T09:29:32;1.20;;;1.10;;
26540;SDS011;14206;50.202;10.948;2023-06-24T09:32:03;1.50;;;1.40;;
26540;SDS011;14206;50.202;10.948;2023-06-24T09:34:31;1.55;;;1.30;;
26540;SDS011;14206;50.202;10.948;2023-06-24T09:36:58;1.33;;;1.23;;
26540;SDS011;14206;50.202;10.948;2023-06-24T09:39:26;1.50;;;1.40;;
26540;SDS011;14206;50.202;10.948;2023-06-24T09:41:57;1.50;;;1.40;;
26540;SDS011;14206;50.202;10.948;2023-06-24T09:44:25;1.13;;;1.08;;
26540;SDS011;14206;50.202;10.948;2023-06-24T09:46:53;1.00;;;1.00;;
26540;SDS011;14206;50.202;10.948;2023-06-24T09:49:20;1.67;;;1.10;;
26540;SDS011;14206;50.202;10.948;2023-06-24T09:51:48;1.45;;;1.35;;
26540;SDS011;14206;50.202;10.948;2023-06-24T09:54:16;2.47;;;1.90;;
26540;SDS011;14206;50.202;10.948;2023-06-24T09:56:48;1.98;;;1.77;;
26540;SDS011;14206;50.202;10.948;2023-06-24T09:59:17;2.00;;;1.80;;
26540;SDS011;14206;50.202;10.948;2023-06-24T10:01:49;2.00;;;1.60;;
26540;SDS011;14206;50.202;10.948;2023-06-24T10:04:19;2.45;;;1.63;;
26540;SDS011;14206;50.202;10.948;2023-06-24T10:06:48;1.48;;;1.38;;
26540;SDS011;14206;50.202;10.948;2023-06-24T10:09:16;1.52;;;1.42;;
26540;SDS011;14206;50.202;10.948;2023-06-24T10:11:45;1.10;;;1.00;;
26540;SDS011;14206;50.202;10.948;2023-06-24T10:14:16;2.30;;;1.20;;
26540;SDS011;14206;50.202;10.948;2023-06-24T10:16:44;1.58;;;1.48;;
26540;SDS011;14206;50.202;10.948;2023-06-24T10:19:13;1.98;;;1.40;;
26540;SDS011;14206;50.202;10.948;2023-06-24T10:21:46;1.10;;;1.00;;
26540;SDS011;14206;50.202;10.948;2023-06-24T10:24:29;2.13;;;1.60;;
26540;SDS011;14206;50.202;10.948;2023-06-24T10:27:07;0.95;;;0.95;;
26540;SDS011;14206;50.202;10.948;2023-06-24T10:29:39;1.10;;;1.00;;
26540;SDS011;14206;50.202;10.948;2023-06-24T10:32:10;1.10;;;1.00;;
26540;SDS011;14206;50.202;10.948;2023-06-24T10:37:07;1.65;;;1.55;;
26540;SDS011;14206;50.202;10.948;2023-06-24T10:47:45;1.50;;;1.40;;
26540;SDS011;14206;50.202;10.948;2023-06-24T10:50:18;1.55;;;1.45;;
26540;SDS011;14206;50.202;10.948;2023-06-24T10:52:46;1.30;;;1.20;;
26540;SDS011;14206;50.202;10.948;2023-06-24T10:55:15;1.40;;;1.20;;
26540;SDS011;14206;50.202;10.948;2023-06-24T10:57:43;1.55;;;1.20;;
26540;SDS011;14206;50.202;10.948;2023-06-24T11:00:11;1.40;;;1.30;;
26540;SDS011;14206;50.202;10.948;2023-06-24T11:02:39;1.20;;;1.10;;
26540;SDS011;14206;50.202;10.948;2023-06-24T11:05:06;1.60;;;1.50;;
26540;SDS011;14206;50.202;10.948;2023-06-24T11:07:35;1.00;;;1.00;;
26540;SDS011;14206;50.202;10.948;2023-06-24T11:10:04;1.50;;;1.40;;
26540;SDS011;14206;50.202;10.948;2023-06-24T11:12:36;1.40;;;1.30;;
26540;SDS011;14206;50.202;10.948;2023-06-24T11:15:05;1.00;;;1.00;;
26540;SDS011;14206;50.202;10.948;2023-06-24T11:17:34;1.50;;;1.40;;
26540;SDS011;14206;50.202;10.948;2023-06-24T11:20:02;1.60;;;1.50;;
26540;SDS011;14206;50.202;10.948;2023-06-24T11:22:33;1.30;;;1.20;;
26540;SDS011;14206;50.202;10.948;2023-06-24T11:25:00;2.03;;;1.60;;
26540;SDS011;14206;50.202;10.948;2023-06-24T11:27:27;1.83;;;1.73;;
26540;SDS011;14206;50.202;10.948;2023-06-24T11:29:57;1.73;;;1.60;;
26540;SDS011;14206;50.202;10.948;2023-06-24T11:35:13;1.20;;;1.10;;
26540;SDS011;14206;50.202;10.948;2023-06-24T11:37:45;1.70;;;1.60;;
26540;SDS011;14206;50.202;10.948;2023-06-24T11:40:13;1.92;;;1.63;;
26540;SDS011;14206;50.202;10.948;2023-06-24T11:42:42;2.13;;;1.50;;
26540;SDS011;14206;50.202;10.948;2023-06-24T11:45:12;1.60;;;1.50;;
26540;SDS011;14206;50.202;10.948;2023-06-24T11:47:42;1.50;;;1.40;;
26540;SDS011;14206;50.202;10.948;2023-06-24T11:50:09;1.40;;;1.30;;
26540;SDS011;14206;50.202;10.948;2023-06-24T11:52:48;1.60;;;1.50;;
26540;SDS011;14206;50.202;10.948;2023-06-24T11:55:16;1.05;;;1.02;;
26540;SDS011;14206;50.202;10.948;2023-06-24T12:00:27;1.00;;;1.00;;
26540;SDS011;14206;50.202;10.948;2023-06-24T12:03:00;1.02;;;0.93;;
26540;SDS011;14206;50.202;10.948;2023-06-24T12:05:32;2.40;;;1.50;;
26540;SDS011;14206;50.202;10.948;2023-06-24T12:08:04;1.55;;;1.40;;
26540;SDS011;14206;50.202;10.948;2023-06-24T12:10:37;1.55;;;1.20;;
26540;SDS011;14206;50.202;10.948;2023-06-24T12:13:05;1.42;;;1.33;;
26540;SDS011;14206;50.202;10.948;2023-06-24T12:15:33;1.30;;;1.20;;
26540;SDS011;14206;50.202;10.948;2023-06-24T12:18:00;1.15;;;1.05;;
26540;SDS011;14206;50.202;10.948;2023-06-24T12:20:29;1.13;;;1.02;;
26540;SDS011;14206;50.202;10.948;2023-06-24T12:23:00;1.20;;;1.10;;
26540;SDS011;14206;50.202;10.948;2023-06-24T12:25:27;1.05;;;0.95;;
26540;SDS011;14206;50.202;10.948;2023-06-24T12:27:54;0.90;;;0.90;;
26540;SDS011;14206;50.202;10.948;2023-06-24T12:30:21;1.10;;;1.00;;
26540;SDS011;14206;50.202;10.948;2023-06-24T12:32:52;0.90;;;0.90;;
26540;SDS011;14206;50.202;10.948;2023-06-24T12:35:19;1.00;;;1.00;;
26540;SDS011;14206;50.202;10.948;2023-06-24T12:37:46;1.20;;;1.10;;
26540;SDS011;14206;50.202;10.948;2023-06-24T12:40:14;1.20;;;1.10;;
26540;SDS011;14206;50.202;10.948;2023-06-24T12:42:41;1.27;;;1.10;;
26540;SDS011;14206;50.202;10.948;2023-06-24T12:45:08;1.00;;;0.90;;
26540;SDS011;14206;50.202;10.948;2023-06-24T12:47:47;1.17;;;1.10;;
26540;SDS011;14206;50.202;10.948;2023-06-24T12:50:14;1.17;;;1.13;;
26540;SDS011;14206;50.202;10.948;2023-06-24T12:52:41;1.45;;;1.35;;
26540;SDS011;14206;50.202;10.948;2023-06-24T12:55:08;1.35;;;1.25;;
26540;SDS011;14206;50.202;10.948;2023-06-24T12:57:35;2.03;;;1.83;;
26540;SDS011;14206;50.202;10.948;2023-06-24T13:00:06;1.33;;;1.23;;
26540;SDS011;14206;50.202;10.948;2023-06-24T13:02:34;1.70;;;1.60;;
26540;SDS011;14206;50.202;10.948;2023-06-24T13:05:01;1.48;;;1.35;;
26540;SDS011;14206;50.202;10.948;2023-06-24T13:07:29;2.50;;;1.95;;
26540;SDS011;14206;50.202;10.948;2023-06-24T13:10:00;1.55;;;1.45;;
26540;SDS011;14206;50.202;10.948;2023-06-24T13:12:28;1.63;;;1.35;;
26540;SDS011;14206;50.202;10.948;2023-06-24T13:14:55;1.38;;;1.27;;
26540;SDS011;14206;50.202;10.948;2023-06-24T13:17:21;1.35;;;1.25;;
26540;SDS011;14206;50.202;10.948;2023-06-24T13:19:48;1.13;;;1.10;;
26540;SDS011;14206;50.202;10.948;2023-06-24T13:22:16;1.25;;;1.15;;
26540;SDS011;14206;50.202;10.948;2023-06-24T13:24:43;2.17;;;1.60;;
26540;SDS011;14206;50.202;10.948;2023-06-24T13:27:11;1.48;;;1.38;;
26540;SDS011;14206;50.202;10.948;2023-06-24T13:29:37;1.35;;;1.25;;
26540;SDS011;14206;50.202;10.948;2023-06-24T13:32:04;1.45;;;1.10;;
26540;SDS011;14206;50.202;10.948;2023-06-24T13:34:31;1.40;;;1.30;;
26540;SDS011;14206;50.202;10.948;2023-06-24T13:36:58;1.67;;;1.30;;
26540;SDS011;14206;50.202;10.948;2023-06-24T13:39:25;2.22;;;1.83;;
26540;SDS011;14206;50.202;10.948;2023-06-24T13:41:53;1.52;;;1.20;;
26540;SDS011;14206;50.202;10.948;2023-06-24T13:44:20;1.48;;;1.38;;
26540;SDS011;14206;50.202;10.948;2023-06-24T13:46:47;1.30;;;1.20;;
26540;SDS011;14206;50.202;10.948;2023-06-24T13:49:14;1.30;;;1.20;;
26540;SDS011;14206;50.202;10.948;2023-06-24T13:51:41;1.20;;;1.10;;
26540;SDS011;14206;50.202;10.948;2023-06-24T13:54:08;1.15;;;1.05;;
26540;SDS011;14206;50.202;10.948;2023-06-24T13:56:35;1.20;;;1.10;;
26540;SDS011;14206;50.202;10.948;2023-06-24T13:59:03;1.02;;;1.02;;
26540;SDS011;14206;50.202;10.948;2023-06-24T14:01:29;1.08;;;0.98;;
26540;SDS011;14206;50.202;10.948;2023-06-24T14:03:58;1.15;;;1.05;;
26540;SDS011;14206;50.202;10.948;2023-06-24T14:06:25;0.95;;;0.90;;
26540;SDS011;14206;50.202;10.948;2023-06-24T14:08:52;1.30;;;1.20;;
26540;SDS011;14206;50.202;10.948;2023-06-24T14:11:19;1.10;;;1.00;;
26540;SDS011;14206;50.202;10.948;2023-06-24T14:13:46;1.30;;;1.20;;
26540;SDS011;14206;50.202;10.948;2023-06-24T14:16:13;1.17;;;1.08;;
26540;SDS011;14206;50.202;10.948;2023-06-24T14:18:39;0.85;;;0.85;;
26540;SDS011;14206;50.202;10.948;2023-06-24T14:21:07;0.80;;;0.80;;
26540;SDS011;14206;50.202;10.948;2023-06-24T14:23:34;1.20;;;1.10;;
26540;SDS011;14206;50.202;10.948;2023-06-24T14:26:02;1.10;;;1.10;;
26540;SDS011;14206;50.202;10.948;2023-06-24T14:28:29;1.08;;;1.00;;
26540;SDS011;14206;50.202;10.948;2023-06-24T14:30:56;0.95;;;0.95;;
26540;SDS011;14206;50.202;10.948;2023-06-24T14:33:23;0.80;;;0.80;;
26540;SDS011;14206;50.202;10.948;2023-06-24T14:35:50;1.00;;;1.00;;
26540;SDS011;14206;50.202;10.948;2023-06-24T14:38:17;1.10;;;1.00;;
26540;SDS011;14206;50.202;10.948;2023-06-24T14:40:45;1.00;;;1.00;;
26540;SDS011;14206;50.202;10.948;2023-06-24T14:43:12;1.52;;;1.10;;
26540;SDS011;14206;50.202;10.948;2023-06-24T14:45:38;1.10;;;1.00;;
26540;SDS011;14206;50.202;10.948;2023-06-24T14:48:05;1.38;;;1.27;;
26540;SDS011;14206;50.202;10.948;2023-06-24T14:50:33;1.17;;;1.08;;
26540;SDS011;14206;50.202;10.948;2023-06-24T14:53:02;1.20;;;1.10;;
26540;SDS011;14206;50.202;10.948;2023-06-24T14:57:00;1.00;;;1.00;;
26540;SDS011;14206;50.202;10.948;2023-06-24T14:59:28;0.90;;;0.90;;
26540;SDS011;14206;50.202;10.948;2023-06-24T15:01:59;0.95;;;0.95;;
26540;SDS011;14206;50.202;10.948;2023-06-24T15:04:27;1.00;;;0.95;;
26540;SDS011;14206;50.202;10.948;2023-06-24T15:06:55;0.88;;;0.88;;
26540;SDS011;14206;50.202;10.948;2023-06-24T15:09:24;1.05;;;0.98;;
26540;SDS011;14206;50.202;10.948;2023-06-24T15:11:51;1.20;;;0.82;;
26540;SDS011;14206;50.202;10.948;2023-06-24T15:14:18;1.00;;;0.90;;
26540;SDS011;14206;50.202;10.948;2023-06-24T15:16:46;0.98;;;0.88;;
26540;SDS011;14206;50.202;10.948;2023-06-24T15:19:13;0.90;;;0.90;;